Terminal Aerodrome Forecast
Issued by NWS

Home | Current Version | Previous Version | Text Only | Print | Product List | Glossary On
Versions: 1 2 3 4 5 6 7 8 9 10 11 12 13 14 15 16 17 18 19 20 21 22 23 24 25 26 27 28
637
FTUS43 KSGF 292320
TAFJLN
TAF
KJLN 292320Z 3000/3024 08012KT 4SM -TSRA BR OVC007CB
     FM300700 14012KT 4SM BR VCSH OVC007
     FM301400 18013G22KT P6SM OVC007
     FM301700 19020G30KT P6SM OVC015
     FM301900 20023G32KT P6SM OVC025=

USA.gov is the U.S. government's official web portal to all federal, state and local government web resources and services.